Strona główna
METAR-TAF:

METAR-TAF

Lotnisko :

Antananarywa, Madagaskar

Port lotniczy Antananarywa

Szerokość geograficzna: 18-48S, Długość geograficzna: 047-29E, wysokość: 1279 m

Aktualna obserwacja pogody

Raport powstał 22 minut temu, godzina 11:30 UTC
Wiatr 4 kt od południe, zmienny między wschód i zachodnio-południowy zachód
Temperatura 29°C
Wilgotność 31%
Ciśnienie 1014 hPa
Widzialność 10 km lub więcej
Rozproszone chmury na wysokości 2300 ft

METAR: FMMI 181130Z 17004KT 080V250 9999 SCT023 29/10 Q1014 NOSIG

czas: 14:52 (11:52 UTC)

Prognoza

Raport powstał 52 minut temu, godzina 11:00 UTC
Prognoza ważna od 18 godzina 12 UTC do 19 godzina 18 UTC
Wiatr 10 kt od południe
Widzialność 10 km lub więcej
Rozproszone chmury na wysokości 1700 ft
Rozproszone chmury na wysokości 2000 ft
Stopniowe zmiany
od 19 godzina 07 UTC do 19 godzina 10 UTC
Wiatr 12 kt od zachód

TAF: FMMI 181100Z 1812/1918 18010KT 9999 SCT017 SCT020 BECMG 1907/1910 26012KT

Obserwacja i prognoza pogody dla ponad 4000 lotnisk (raport METAR i TAF).

Dostępne stacje oznaczono żółtymi i czerwonymi punktami na mapie.

Najedź kursorem aby zobaczyć nazwę stacji.

Kliknij aby zobaczyć obserwacje i prognozy pogody.

Aby zmienić mapę: kliknij na zielony przycisk z czarnym krzyżykiem, aby powiększyć; na zielony przycisk z myślnikiem, aby pomniejszyć; na zielone strzałki, aby przejść do map sąsiednich.


METAR-TAF: